sensor_id;sensor_type;location;lat;lon;timestamp;P1;durP1;ratioP1;P2;durP2;ratioP2
22388;SDS011;11362;48.102;11.620;2023-12-20T00:02:04;2.50;;;1.60;;
22388;SDS011;11362;48.102;11.620;2023-12-20T00:04:30;3.40;;;1.40;;
22388;SDS011;11362;48.102;11.620;2023-12-20T00:06:55;1.90;;;1.60;;
22388;SDS011;11362;48.102;11.620;2023-12-20T00:09:20;2.93;;;1.27;;
22388;SDS011;11362;48.102;11.620;2023-12-20T00:11:45;1.40;;;1.30;;
22388;SDS011;11362;48.102;11.620;2023-12-20T00:14:11;2.90;;;1.57;;
22388;SDS011;11362;48.102;11.620;2023-12-20T00:16:36;1.50;;;1.37;;
22388;SDS011;11362;48.102;11.620;2023-12-20T00:19:01;2.40;;;1.20;;
22388;SDS011;11362;48.102;11.620;2023-12-20T00:21:26;2.00;;;1.37;;
22388;SDS011;11362;48.102;11.620;2023-12-20T00:23:52;1.40;;;1.30;;
22388;SDS011;11362;48.102;11.620;2023-12-20T00:26:17;1.67;;;1.10;;
22388;SDS011;11362;48.102;11.620;2023-12-20T00:28:42;2.47;;;1.30;;
22388;SDS011;11362;48.102;11.620;2023-12-20T00:31:08;2.43;;;1.20;;
22388;SDS011;11362;48.102;11.620;2023-12-20T00:33:33;2.23;;;1.57;;
22388;SDS011;11362;48.102;11.620;2023-12-20T00:35:58;4.90;;;1.80;;
22388;SDS011;11362;48.102;11.620;2023-12-20T00:38:23;2.83;;;1.20;;
22388;SDS011;11362;48.102;11.620;2023-12-20T00:40:49;2.10;;;1.40;;
22388;SDS011;11362;48.102;11.620;2023-12-20T00:43:14;2.50;;;1.40;;
22388;SDS011;11362;48.102;11.620;2023-12-20T00:45:39;2.67;;;1.40;;
22388;SDS011;11362;48.102;11.620;2023-12-20T00:48:05;4.13;;;1.20;;
22388;SDS011;11362;48.102;11.620;2023-12-20T00:50:30;2.03;;;0.97;;
22388;SDS011;11362;48.102;11.620;2023-12-20T00:52:56;1.33;;;1.30;;
22388;SDS011;11362;48.102;11.620;2023-12-20T00:55:21;2.53;;;1.37;;
22388;SDS011;11362;48.102;11.620;2023-12-20T00:57:46;2.20;;;1.30;;
22388;SDS011;11362;48.102;11.620;2023-12-20T01:00:12;3.03;;;1.40;;
22388;SDS011;11362;48.102;11.620;2023-12-20T01:02:37;5.10;;;1.53;;
22388;SDS011;11362;48.102;11.620;2023-12-20T01:05:03;1.60;;;1.40;;
22388;SDS011;11362;48.102;11.620;2023-12-20T01:07:28;1.23;;;1.20;;
22388;SDS011;11362;48.102;11.620;2023-12-20T01:09:53;1.90;;;1.30;;
22388;SDS011;11362;48.102;11.620;2023-12-20T01:12:19;2.93;;;1.33;;
22388;SDS011;11362;48.102;11.620;2023-12-20T01:14:44;1.20;;;1.00;;
22388;SDS011;11362;48.102;11.620;2023-12-20T01:17:09;1.30;;;1.00;;
22388;SDS011;11362;48.102;11.620;2023-12-20T01:19:34;2.30;;;1.00;;
22388;SDS011;11362;48.102;11.620;2023-12-20T01:22:00;1.87;;;1.10;;
22388;SDS011;11362;48.102;11.620;2023-12-20T01:24:25;3.90;;;1.00;;
22388;SDS011;11362;48.102;11.620;2023-12-20T01:26:50;1.23;;;1.00;;
22388;SDS011;11362;48.102;11.620;2023-12-20T01:29:16;4.60;;;1.83;;
22388;SDS011;11362;48.102;11.620;2023-12-20T01:31:41;2.43;;;1.07;;
22388;SDS011;11362;48.102;11.620;2023-12-20T01:34:06;1.33;;;1.00;;
22388;SDS011;11362;48.102;11.620;2023-12-20T01:36:32;1.60;;;1.07;;
22388;SDS011;11362;48.102;11.620;2023-12-20T01:38:57;2.53;;;1.30;;
22388;SDS011;11362;48.102;11.620;2023-12-20T01:41:22;1.33;;;1.00;;
22388;SDS011;11362;48.102;11.620;2023-12-20T01:43:47;1.10;;;1.10;;
22388;SDS011;11362;48.102;11.620;2023-12-20T01:46:13;1.33;;;1.10;;
22388;SDS011;11362;48.102;11.620;2023-12-20T01:48:39;1.40;;;1.30;;
22388;SDS011;11362;48.102;11.620;2023-12-20T01:51:04;1.60;;;1.03;;
22388;SDS011;11362;48.102;11.620;2023-12-20T01:53:30;2.00;;;1.00;;
22388;SDS011;11362;48.102;11.620;2023-12-20T01:55:56;2.23;;;1.17;;
22388;SDS011;11362;48.102;11.620;2023-12-20T01:58:23;1.27;;;1.03;;
22388;SDS011;11362;48.102;11.620;2023-12-20T02:00:49;1.30;;;1.03;;
22388;SDS011;11362;48.102;11.620;2023-12-20T02:03:15;0.97;;;0.83;;
22388;SDS011;11362;48.102;11.620;2023-12-20T02:05:41;0.87;;;0.87;;
22388;SDS011;11362;48.102;11.620;2023-12-20T02:08:07;1.30;;;1.20;;
22388;SDS011;11362;48.102;11.620;2023-12-20T02:10:32;2.47;;;1.03;;
22388;SDS011;11362;48.102;11.620;2023-12-20T02:12:57;1.73;;;0.93;;
22388;SDS011;11362;48.102;11.620;2023-12-20T02:15:23;1.77;;;0.80;;
22388;SDS011;11362;48.102;11.620;2023-12-20T02:17:48;1.30;;;1.20;;
22388;SDS011;11362;48.102;11.620;2023-12-20T02:20:14;1.30;;;1.00;;
22388;SDS011;11362;48.102;11.620;2023-12-20T02:22:39;2.77;;;1.10;;
22388;SDS011;11362;48.102;11.620;2023-12-20T02:25:04;1.83;;;0.77;;
22388;SDS011;11362;48.102;11.620;2023-12-20T02:27:30;0.93;;;0.90;;
22388;SDS011;11362;48.102;11.620;2023-12-20T02:29:55;0.83;;;0.83;;
22388;SDS011;11362;48.102;11.620;2023-12-20T02:32:21;0.67;;;0.67;;
22388;SDS011;11362;48.102;11.620;2023-12-20T02:34:48;1.17;;;1.00;;
22388;SDS011;11362;48.102;11.620;2023-12-20T02:37:13;1.40;;;1.30;;
22388;SDS011;11362;48.102;11.620;2023-12-20T02:39:39;1.43;;;0.87;;
22388;SDS011;11362;48.102;11.620;2023-12-20T02:42:05;1.10;;;0.70;;
22388;SDS011;11362;48.102;11.620;2023-12-20T02:44:30;1.07;;;1.07;;
22388;SDS011;11362;48.102;11.620;2023-12-20T02:46:55;1.40;;;1.30;;
22388;SDS011;11362;48.102;11.620;2023-12-20T02:49:21;2.23;;;0.90;;
22388;SDS011;11362;48.102;11.620;2023-12-20T02:51:46;1.13;;;1.00;;
22388;SDS011;11362;48.102;11.620;2023-12-20T02:54:11;1.07;;;0.90;;
22388;SDS011;11362;48.102;11.620;2023-12-20T02:56:36;1.53;;;0.80;;
22388;SDS011;11362;48.102;11.620;2023-12-20T02:59:02;0.87;;;0.73;;
22388;SDS011;11362;48.102;11.620;2023-12-20T03:01:28;0.47;;;0.47;;
22388;SDS011;11362;48.102;11.620;2023-12-20T03:03:54;2.73;;;1.00;;
22388;SDS011;11362;48.102;11.620;2023-12-20T03:06:20;0.90;;;0.87;;
22388;SDS011;11362;48.102;11.620;2023-12-20T03:08:45;1.03;;;1.03;;
22388;SDS011;11362;48.102;11.620;2023-12-20T03:11:11;0.57;;;0.57;;
22388;SDS011;11362;48.102;11.620;2023-12-20T03:13:36;0.60;;;0.60;;
22388;SDS011;11362;48.102;11.620;2023-12-20T03:16:01;0.87;;;0.77;;
22388;SDS011;11362;48.102;11.620;2023-12-20T03:18:33;2.40;;;0.80;;
22388;SDS011;11362;48.102;11.620;2023-12-20T03:20:58;0.70;;;0.70;;
22388;SDS011;11362;48.102;11.620;2023-12-20T03:23:23;2.33;;;1.00;;
22388;SDS011;11362;48.102;11.620;2023-12-20T03:25:49;0.70;;;0.70;;
22388;SDS011;11362;48.102;11.620;2023-12-20T03:28:14;0.90;;;0.70;;
22388;SDS011;11362;48.102;11.620;2023-12-20T03:30:40;0.80;;;0.80;;
22388;SDS011;11362;48.102;11.620;2023-12-20T03:33:05;0.97;;;0.70;;
22388;SDS011;11362;48.102;11.620;2023-12-20T03:35:30;1.67;;;0.80;;
22388;SDS011;11362;48.102;11.620;2023-12-20T03:37:55;0.77;;;0.77;;
22388;SDS011;11362;48.102;11.620;2023-12-20T03:40:21;1.23;;;0.50;;
22388;SDS011;11362;48.102;11.620;2023-12-20T03:42:46;0.90;;;0.90;;
22388;SDS011;11362;48.102;11.620;2023-12-20T03:45:11;0.70;;;0.70;;
22388;SDS011;11362;48.102;11.620;2023-12-20T03:47:37;1.07;;;0.80;;
22388;SDS011;11362;48.102;11.620;2023-12-20T03:50:02;1.50;;;0.77;;
22388;SDS011;11362;48.102;11.620;2023-12-20T03:52:27;0.70;;;0.60;;
22388;SDS011;11362;48.102;11.620;2023-12-20T03:54:53;1.23;;;0.70;;
22388;SDS011;11362;48.102;11.620;2023-12-20T03:57:18;1.47;;;0.73;;
22388;SDS011;11362;48.102;11.620;2023-12-20T03:59:43;0.50;;;0.50;;
22388;SDS011;11362;48.102;11.620;2023-12-20T04:02:08;2.00;;;0.70;;
22388;SDS011;11362;48.102;11.620;2023-12-20T04:04:34;1.13;;;0.50;;
22388;SDS011;11362;48.102;11.620;2023-12-20T04:06:59;1.93;;;0.67;;
22388;SDS011;11362;48.102;11.620;2023-12-20T04:09:24;2.77;;;0.80;;
22388;SDS011;11362;48.102;11.620;2023-12-20T04:11:50;0.80;;;0.60;;
22388;SDS011;11362;48.102;11.620;2023-12-20T04:14:15;0.60;;;0.50;;
22388;SDS011;11362;48.102;11.620;2023-12-20T04:16:40;0.73;;;0.73;;
22388;SDS011;11362;48.102;11.620;2023-12-20T04:19:06;1.60;;;0.80;;
22388;SDS011;11362;48.102;11.620;2023-12-20T04:21:31;1.57;;;0.77;;
22388;SDS011;11362;48.102;11.620;2023-12-20T04:23:56;1.43;;;0.60;;
22388;SDS011;11362;48.102;11.620;2023-12-20T04:26:21;0.60;;;0.60;;
22388;SDS011;11362;48.102;11.620;2023-12-20T04:28:47;1.50;;;0.60;;
22388;SDS011;11362;48.102;11.620;2023-12-20T04:31:12;0.90;;;0.70;;
22388;SDS011;11362;48.102;11.620;2023-12-20T04:33:37;0.50;;;0.50;;
22388;SDS011;11362;48.102;11.620;2023-12-20T04:36:03;1.00;;;1.00;;
22388;SDS011;11362;48.102;11.620;2023-12-20T04:38:28;0.90;;;0.53;;
22388;SDS011;11362;48.102;11.620;2023-12-20T04:40:54;0.90;;;0.60;;
22388;SDS011;11362;48.102;11.620;2023-12-20T04:43:19;0.70;;;0.70;;
22388;SDS011;11362;48.102;11.620;2023-12-20T04:45:44;1.83;;;1.10;;
22388;SDS011;11362;48.102;11.620;2023-12-20T04:48:09;0.40;;;0.40;;
22388;SDS011;11362;48.102;11.620;2023-12-20T04:50:35;0.50;;;0.50;;
22388;SDS011;11362;48.102;11.620;2023-12-20T04:53:00;0.67;;;0.60;;
22388;SDS011;11362;48.102;11.620;2023-12-20T04:55:26;0.50;;;0.50;;
22388;SDS011;11362;48.102;11.620;2023-12-20T04:57:51;0.70;;;0.70;;
22388;SDS011;11362;48.102;11.620;2023-12-20T05:00:16;1.43;;;0.90;;
22388;SDS011;11362;48.102;11.620;2023-12-20T05:02:42;2.53;;;0.60;;
22388;SDS011;11362;48.102;11.620;2023-12-20T05:05:07;1.77;;;0.77;;
22388;SDS011;11362;48.102;11.620;2023-12-20T05:07:33;2.10;;;0.70;;
22388;SDS011;11362;48.102;11.620;2023-12-20T05:09:58;0.93;;;0.50;;
22388;SDS011;11362;48.102;11.620;2023-12-20T05:12:24;1.17;;;0.60;;
22388;SDS011;11362;48.102;11.620;2023-12-20T05:14:49;0.70;;;0.70;;
22388;SDS011;11362;48.102;11.620;2023-12-20T05:17:14;0.53;;;0.50;;
22388;SDS011;11362;48.102;11.620;2023-12-20T05:19:40;1.10;;;0.60;;
22388;SDS011;11362;48.102;11.620;2023-12-20T05:22:05;0.70;;;0.57;;
22388;SDS011;11362;48.102;11.620;2023-12-20T05:24:30;1.10;;;0.77;;
22388;SDS011;11362;48.102;11.620;2023-12-20T05:26:55;1.17;;;0.80;;
22388;SDS011;11362;48.102;11.620;2023-12-20T05:29:21;2.53;;;0.50;;
22388;SDS011;11362;48.102;11.620;2023-12-20T05:31:46;2.73;;;0.80;;
22388;SDS011;11362;48.102;11.620;2023-12-20T05:34:11;1.40;;;0.70;;
22388;SDS011;11362;48.102;11.620;2023-12-20T05:36:37;0.90;;;0.70;;
22388;SDS011;11362;48.102;11.620;2023-12-20T05:39:02;1.90;;;0.80;;
22388;SDS011;11362;48.102;11.620;2023-12-20T05:41:28;1.03;;;0.63;;
22388;SDS011;11362;48.102;11.620;2023-12-20T05:43:53;0.77;;;0.70;;
22388;SDS011;11362;48.102;11.620;2023-12-20T05:46:18;1.57;;;0.70;;
22388;SDS011;11362;48.102;11.620;2023-12-20T05:48:44;1.03;;;0.50;;
22388;SDS011;11362;48.102;11.620;2023-12-20T05:51:11;0.67;;;0.67;;
22388;SDS011;11362;48.102;11.620;2023-12-20T05:53:36;1.63;;;0.80;;
22388;SDS011;11362;48.102;11.620;2023-12-20T05:56:02;1.33;;;0.60;;
22388;SDS011;11362;48.102;11.620;2023-12-20T05:58:28;1.90;;;0.53;;
22388;SDS011;11362;48.102;11.620;2023-12-20T06:00:54;2.17;;;0.70;;
22388;SDS011;11362;48.102;11.620;2023-12-20T06:03:19;0.63;;;0.60;;
22388;SDS011;11362;48.102;11.620;2023-12-20T06:05:44;0.60;;;0.60;;
22388;SDS011;11362;48.102;11.620;2023-12-20T06:08:10;0.97;;;0.80;;
22388;SDS011;11362;48.102;11.620;2023-12-20T06:10:35;1.40;;;0.60;;
22388;SDS011;11362;48.102;11.620;2023-12-20T06:13:00;8.60;;;1.33;;
22388;SDS011;11362;48.102;11.620;2023-12-20T06:15:25;11.37;;;1.67;;
22388;SDS011;11362;48.102;11.620;2023-12-20T06:17:51;6.63;;;1.50;;
22388;SDS011;11362;48.102;11.620;2023-12-20T06:20:16;4.70;;;1.67;;
22388;SDS011;11362;48.102;11.620;2023-12-20T06:22:41;6.97;;;1.50;;
22388;SDS011;11362;48.102;11.620;2023-12-20T06:25:07;7.27;;;1.30;;
22388;SDS011;11362;48.102;11.620;2023-12-20T06:27:32;4.93;;;1.43;;
22388;SDS011;11362;48.102;11.620;2023-12-20T06:29:58;11.10;;;1.67;;
22388;SDS011;11362;48.102;11.620;2023-12-20T06:32:23;6.70;;;1.90;;
22388;SDS011;11362;48.102;11.620;2023-12-20T06:34:48;8.37;;;1.33;;
22388;SDS011;11362;48.102;11.620;2023-12-20T06:37:14;16.33;;;2.60;;
22388;SDS011;11362;48.102;11.620;2023-12-20T06:39:39;9.37;;;1.90;;
22388;SDS011;11362;48.102;11.620;2023-12-20T06:42:04;17.93;;;2.37;;
22388;SDS011;11362;48.102;11.620;2023-12-20T06:44:30;11.87;;;2.07;;
22388;SDS011;11362;48.102;11.620;2023-12-20T06:46:55;14.83;;;2.87;;
22388;SDS011;11362;48.102;11.620;2023-12-20T06:49:20;12.90;;;2.80;;
22388;SDS011;11362;48.102;11.620;2023-12-20T06:51:45;13.17;;;2.47;;
22388;SDS011;11362;48.102;11.620;2023-12-20T06:54:11;11.90;;;2.33;;
22388;SDS011;11362;48.102;11.620;2023-12-20T06:56:36;13.03;;;2.57;;
22388;SDS011;11362;48.102;11.620;2023-12-20T06:59:01;13.60;;;2.77;;
22388;SDS011;11362;48.102;11.620;2023-12-20T07:01:27;10.90;;;2.33;;
22388;SDS011;11362;48.102;11.620;2023-12-20T07:03:52;14.17;;;3.07;;
22388;SDS011;11362;48.102;11.620;2023-12-20T07:06:17;16.67;;;2.63;;
22388;SDS011;11362;48.102;11.620;2023-12-20T07:08:42;16.27;;;2.63;;
22388;SDS011;11362;48.102;11.620;2023-12-20T07:11:08;17.13;;;2.20;;
22388;SDS011;11362;48.102;11.620;2023-12-20T07:13:33;14.63;;;2.50;;
22388;SDS011;11362;48.102;11.620;2023-12-20T07:15:58;13.23;;;2.40;;
22388;SDS011;11362;48.102;11.620;2023-12-20T07:18:24;7.93;;;2.20;;
22388;SDS011;11362;48.102;11.620;2023-12-20T07:20:49;10.53;;;2.40;;
22388;SDS011;11362;48.102;11.620;2023-12-20T07:23:15;14.43;;;2.43;;
22388;SDS011;11362;48.102;11.620;2023-12-20T07:25:40;15.93;;;2.07;;
22388;SDS011;11362;48.102;11.620;2023-12-20T07:28:05;10.80;;;3.07;;
22388;SDS011;11362;48.102;11.620;2023-12-20T07:30:30;14.67;;;2.50;;
22388;SDS011;11362;48.102;11.620;2023-12-20T07:32:56;18.30;;;2.40;;
22388;SDS011;11362;48.102;11.620;2023-12-20T07:35:21;14.00;;;3.17;;
22388;SDS011;11362;48.102;11.620;2023-12-20T07:37:46;11.57;;;2.23;;
22388;SDS011;11362;48.102;11.620;2023-12-20T07:40:13;7.87;;;2.97;;
22388;SDS011;11362;48.102;11.620;2023-12-20T07:42:38;13.37;;;2.60;;
22388;SDS011;11362;48.102;11.620;2023-12-20T07:45:03;18.40;;;2.60;;
22388;SDS011;11362;48.102;11.620;2023-12-20T07:47:29;14.90;;;3.30;;
22388;SDS011;11362;48.102;11.620;2023-12-20T07:49:54;19.87;;;4.03;;
22388;SDS011;11362;48.102;11.620;2023-12-20T07:52:19;12.20;;;2.57;;
22388;SDS011;11362;48.102;11.620;2023-12-20T07:54:45;16.07;;;2.67;;
22388;SDS011;11362;48.102;11.620;2023-12-20T07:57:11;12.37;;;2.27;;
22388;SDS011;11362;48.102;11.620;2023-12-20T07:59:37;17.60;;;3.03;;
22388;SDS011;11362;48.102;11.620;2023-12-20T08:02:02;11.60;;;2.23;;
22388;SDS011;11362;48.102;11.620;2023-12-20T08:04:28;13.13;;;2.90;;
22388;SDS011;11362;48.102;11.620;2023-12-20T08:06:53;18.13;;;2.67;;
22388;SDS011;11362;48.102;11.620;2023-12-20T08:09:18;10.17;;;2.47;;
22388;SDS011;11362;48.102;11.620;2023-12-20T08:11:44;16.10;;;2.93;;
22388;SDS011;11362;48.102;11.620;2023-12-20T08:14:10;12.87;;;3.40;;
22388;SDS011;11362;48.102;11.620;2023-12-20T08:16:36;10.20;;;2.53;;
22388;SDS011;11362;48.102;11.620;2023-12-20T08:19:01;14.97;;;2.53;;
22388;SDS011;11362;48.102;11.620;2023-12-20T08:21:26;11.80;;;2.43;;
22388;SDS011;11362;48.102;11.620;2023-12-20T08:23:52;10.73;;;3.07;;
22388;SDS011;11362;48.102;11.620;2023-12-20T08:26:18;14.97;;;2.20;;
22388;SDS011;11362;48.102;11.620;2023-12-20T08:28:44;14.63;;;2.97;;
22388;SDS011;11362;48.102;11.620;2023-12-20T08:31:13;12.50;;;2.20;;
22388;SDS011;11362;48.102;11.620;2023-12-20T08:33:39;10.23;;;2.20;;
22388;SDS011;11362;48.102;11.620;2023-12-20T08:36:04;10.27;;;2.40;;
22388;SDS011;11362;48.102;11.620;2023-12-20T08:38:30;12.37;;;2.30;;
22388;SDS011;11362;48.102;11.620;2023-12-20T08:40:55;8.43;;;2.13;;
22388;SDS011;11362;48.102;11.620;2023-12-20T08:43:21;14.07;;;3.00;;
22388;SDS011;11362;48.102;11.620;2023-12-20T08:45:46;8.17;;;1.67;;
22388;SDS011;11362;48.102;11.620;2023-12-20T08:48:11;17.47;;;2.73;;
22388;SDS011;11362;48.102;11.620;2023-12-20T08:50:37;11.43;;;2.23;;
22388;SDS011;11362;48.102;11.620;2023-12-20T08:53:02;12.47;;;2.77;;
22388;SDS011;11362;48.102;11.620;2023-12-20T08:55:27;15.47;;;2.60;;
22388;SDS011;11362;48.102;11.620;2023-12-20T08:57:53;15.77;;;2.40;;
22388;SDS011;11362;48.102;11.620;2023-12-20T09:00:18;14.37;;;2.70;;
22388;SDS011;11362;48.102;11.620;2023-12-20T09:02:43;16.80;;;2.53;;
22388;SDS011;11362;48.102;11.620;2023-12-20T09:05:09;16.40;;;2.47;;
22388;SDS011;11362;48.102;11.620;2023-12-20T09:07:34;20.70;;;2.57;;
22388;SDS011;11362;48.102;11.620;2023-12-20T09:09:59;18.20;;;3.07;;
22388;SDS011;11362;48.102;11.620;2023-12-20T09:12:25;13.80;;;2.27;;
22388;SDS011;11362;48.102;11.620;2023-12-20T09:14:51;17.50;;;2.63;;
22388;SDS011;11362;48.102;11.620;2023-12-20T09:17:17;13.90;;;2.57;;
22388;SDS011;11362;48.102;11.620;2023-12-20T09:19:43;14.23;;;2.50;;
22388;SDS011;11362;48.102;11.620;2023-12-20T09:22:09;8.23;;;2.17;;
22388;SDS011;11362;48.102;11.620;2023-12-20T09:24:35;19.13;;;2.23;;
22388;SDS011;11362;48.102;11.620;2023-12-20T09:27:00;17.83;;;2.37;;
22388;SDS011;11362;48.102;11.620;2023-12-20T09:29:26;10.40;;;2.50;;
22388;SDS011;11362;48.102;11.620;2023-12-20T09:31:51;13.03;;;2.83;;
22388;SDS011;11362;48.102;11.620;2023-12-20T09:34:17;14.00;;;2.67;;
22388;SDS011;11362;48.102;11.620;2023-12-20T09:36:42;14.67;;;2.60;;
22388;SDS011;11362;48.102;11.620;2023-12-20T09:39:08;14.33;;;2.90;;
22388;SDS011;11362;48.102;11.620;2023-12-20T09:41:35;5.10;;;1.63;;
22388;SDS011;11362;48.102;11.620;2023-12-20T09:44:05;7.83;;;2.20;;
22388;SDS011;11362;48.102;11.620;2023-12-20T09:46:33;11.77;;;2.07;;
22388;SDS011;11362;48.102;11.620;2023-12-20T09:49:01;7.27;;;2.20;;
22388;SDS011;11362;48.102;11.620;2023-12-20T09:51:28;9.03;;;2.37;;
22388;SDS011;11362;48.102;11.620;2023-12-20T09:53:54;4.10;;;1.50;;
22388;SDS011;11362;48.102;11.620;2023-12-20T09:56:20;6.60;;;2.00;;
22388;SDS011;11362;48.102;11.620;2023-12-20T09:58:46;10.07;;;2.07;;
22388;SDS011;11362;48.102;11.620;2023-12-20T10:01:12;6.67;;;1.30;;
22388;SDS011;11362;48.102;11.620;2023-12-20T10:03:37;5.77;;;1.60;;
22388;SDS011;11362;48.102;11.620;2023-12-20T10:06:05;6.43;;;1.53;;
22388;SDS011;11362;48.102;11.620;2023-12-20T10:08:31;4.93;;;1.57;;
22388;SDS011;11362;48.102;11.620;2023-12-20T10:10:57;7.50;;;1.83;;
22388;SDS011;11362;48.102;11.620;2023-12-20T10:13:22;7.60;;;1.30;;
22388;SDS011;11362;48.102;11.620;2023-12-20T10:15:47;6.27;;;1.33;;
22388;SDS011;11362;48.102;11.620;2023-12-20T10:18:14;7.07;;;1.40;;
22388;SDS011;11362;48.102;11.620;2023-12-20T10:20:40;3.83;;;1.27;;
22388;SDS011;11362;48.102;11.620;2023-12-20T10:23:06;16.00;;;2.10;;
22388;SDS011;11362;48.102;11.620;2023-12-20T10:25:31;5.80;;;1.50;;
22388;SDS011;11362;48.102;11.620;2023-12-20T10:30:38;5.30;;;1.77;;
22388;SDS011;11362;48.102;11.620;2023-12-20T10:33:05;5.07;;;1.50;;
22388;SDS011;11362;48.102;11.620;2023-12-20T10:35:31;9.30;;;1.77;;
22388;SDS011;11362;48.102;11.620;2023-12-20T10:37:56;8.27;;;1.90;;
22388;SDS011;11362;48.102;11.620;2023-12-20T10:40:21;7.93;;;1.83;;
22388;SDS011;11362;48.102;11.620;2023-12-20T10:42:48;6.53;;;1.80;;
22388;SDS011;11362;48.102;11.620;2023-12-20T10:45:15;10.50;;;1.90;;
22388;SDS011;11362;48.102;11.620;2023-12-20T10:47:41;9.07;;;1.60;;
22388;SDS011;11362;48.102;11.620;2023-12-20T10:50:07;8.47;;;1.67;;
22388;SDS011;11362;48.102;11.620;2023-12-20T10:52:33;4.30;;;1.70;;
22388;SDS011;11362;48.102;11.620;2023-12-20T10:55:00;17.43;;;2.53;;
22388;SDS011;11362;48.102;11.620;2023-12-20T10:57:25;6.57;;;1.87;;
22388;SDS011;11362;48.102;11.620;2023-12-20T10:59:52;10.60;;;2.53;;
22388;SDS011;11362;48.102;11.620;2023-12-20T11:02:19;8.47;;;2.40;;
22388;SDS011;11362;48.102;11.620;2023-12-20T11:04:59;13.37;;;2.27;;
22388;SDS011;11362;48.102;11.620;2023-12-20T11:07:43;16.83;;;2.60;;
22388;SDS011;11362;48.102;11.620;2023-12-20T11:10:19;12.37;;;2.00;;
22388;SDS011;11362;48.102;11.620;2023-12-20T11:13:10;19.20;;;3.27;;
22388;SDS011;11362;48.102;11.620;2023-12-20T11:15:41;11.33;;;2.50;;
22388;SDS011;11362;48.102;11.620;2023-12-20T11:18:07;16.83;;;3.40;;
22388;SDS011;11362;48.102;11.620;2023-12-20T11:20:37;6.20;;;2.00;;
22388;SDS011;11362;48.102;11.620;2023-12-20T11:23:04;8.77;;;1.77;;
22388;SDS011;11362;48.102;11.620;2023-12-20T11:25:33;13.27;;;2.58;;
22388;SDS011;11362;48.102;11.620;2023-12-20T11:28:11;5.63;;;2.03;;
22388;SDS011;11362;48.102;11.620;2023-12-20T11:30:40;11.13;;;1.90;;
22388;SDS011;11362;48.102;11.620;2023-12-20T11:33:16;2.23;;;1.50;;
22388;SDS011;11362;48.102;11.620;2023-12-20T11:35:45;8.97;;;1.87;;
22388;SDS011;11362;48.102;11.620;2023-12-20T11:38:11;5.03;;;1.77;;
22388;SDS011;11362;48.102;11.620;2023-12-20T11:40:38;5.20;;;1.67;;
22388;SDS011;11362;48.102;11.620;2023-12-20T11:43:06;5.70;;;1.20;;
22388;SDS011;11362;48.102;11.620;2023-12-20T11:45:31;4.40;;;1.80;;
22388;SDS011;11362;48.102;11.620;2023-12-20T11:47:57;7.80;;;1.53;;
22388;SDS011;11362;48.102;11.620;2023-12-20T11:50:23;7.60;;;1.80;;
22388;SDS011;11362;48.102;11.620;2023-12-20T11:52:49;6.93;;;1.30;;
22388;SDS011;11362;48.102;11.620;2023-12-20T11:55:16;5.10;;;1.53;;
22388;SDS011;11362;48.102;11.620;2023-12-20T11:57:41;5.43;;;1.40;;
22388;SDS011;11362;48.102;11.620;2023-12-20T12:00:08;4.20;;;1.33;;
22388;SDS011;11362;48.102;11.620;2023-12-20T12:02:34;4.40;;;1.53;;
22388;SDS011;11362;48.102;11.620;2023-12-20T12:04:59;3.83;;;1.40;;
22388;SDS011;11362;48.102;11.620;2023-12-20T12:07:25;2.97;;;1.27;;
22388;SDS011;11362;48.102;11.620;2023-12-20T12:09:50;5.47;;;1.10;;
22388;SDS011;11362;48.102;11.620;2023-12-20T12:12:16;6.07;;;1.40;;
22388;SDS011;11362;48.102;11.620;2023-12-20T12:14:41;11.30;;;1.57;;
22388;SDS011;11362;48.102;11.620;2023-12-20T12:17:10;10.00;;;1.40;;
22388;SDS011;11362;48.102;11.620;2023-12-20T12:19:36;6.00;;;1.40;;
22388;SDS011;11362;48.102;11.620;2023-12-20T12:24:34;3.10;;;1.20;;
22388;SDS011;11362;48.102;11.620;2023-12-20T12:26:59;7.20;;;1.60;;
22388;SDS011;11362;48.102;11.620;2023-12-20T12:29:25;5.63;;;1.37;;
22388;SDS011;11362;48.102;11.620;2023-12-20T12:31:50;8.53;;;1.97;;
22388;SDS011;11362;48.102;11.620;2023-12-20T12:34:16;6.27;;;1.73;;
22388;SDS011;11362;48.102;11.620;2023-12-20T12:36:42;5.33;;;1.57;;
22388;SDS011;11362;48.102;11.620;2023-12-20T12:39:07;3.47;;;1.37;;
22388;SDS011;11362;48.102;11.620;2023-12-20T12:41:33;2.70;;;1.50;;
22388;SDS011;11362;48.102;11.620;2023-12-20T12:43:58;8.40;;;1.50;;
22388;SDS011;11362;48.102;11.620;2023-12-20T12:46:23;8.73;;;2.07;;
22388;SDS011;11362;48.102;11.620;2023-12-20T12:48:49;8.27;;;2.50;;
22388;SDS011;11362;48.102;11.620;2023-12-20T12:51:14;6.73;;;1.87;;
22388;SDS011;11362;48.102;11.620;2023-12-20T12:53:39;6.87;;;1.83;;
22388;SDS011;11362;48.102;11.620;2023-12-20T12:56:05;9.60;;;1.90;;
22388;SDS011;11362;48.102;11.620;2023-12-20T12:58:31;8.43;;;1.90;;
22388;SDS011;11362;48.102;11.620;2023-12-20T13:00:59;11.57;;;1.80;;
22388;SDS011;11362;48.102;11.620;2023-12-20T13:03:25;14.17;;;2.30;;
22388;SDS011;11362;48.102;11.620;2023-12-20T13:05:50;8.23;;;1.73;;
22388;SDS011;11362;48.102;11.620;2023-12-20T13:08:15;6.17;;;2.03;;
22388;SDS011;11362;48.102;11.620;2023-12-20T13:10:41;7.47;;;1.90;;
22388;SDS011;11362;48.102;11.620;2023-12-20T13:13:06;14.20;;;2.13;;
22388;SDS011;11362;48.102;11.620;2023-12-20T13:15:31;7.40;;;2.07;;
22388;SDS011;11362;48.102;11.620;2023-12-20T13:17:57;11.27;;;1.73;;
22388;SDS011;11362;48.102;11.620;2023-12-20T13:20:22;7.90;;;1.70;;
22388;SDS011;11362;48.102;11.620;2023-12-20T13:22:47;12.17;;;2.10;;
22388;SDS011;11362;48.102;11.620;2023-12-20T13:25:13;6.63;;;1.93;;
22388;SDS011;11362;48.102;11.620;2023-12-20T13:27:38;7.33;;;1.50;;
22388;SDS011;11362;48.102;11.620;2023-12-20T13:30:04;9.63;;;2.00;;
22388;SDS011;11362;48.102;11.620;2023-12-20T13:32:30;9.20;;;1.90;;
22388;SDS011;11362;48.102;11.620;2023-12-20T13:34:56;8.83;;;1.77;;
22388;SDS011;11362;48.102;11.620;2023-12-20T13:37:21;6.97;;;1.90;;
22388;SDS011;11362;48.102;11.620;2023-12-20T13:39:47;6.37;;;1.90;;
22388;SDS011;11362;48.102;11.620;2023-12-20T13:42:12;9.90;;;1.43;;
22388;SDS011;11362;48.102;11.620;2023-12-20T13:44:38;10.67;;;1.80;;
22388;SDS011;11362;48.102;11.620;2023-12-20T13:47:03;3.40;;;1.30;;
22388;SDS011;11362;48.102;11.620;2023-12-20T13:49:29;14.53;;;1.93;;
22388;SDS011;11362;48.102;11.620;2023-12-20T13:51:54;6.43;;;1.50;;
22388;SDS011;11362;48.102;11.620;2023-12-20T13:54:19;4.67;;;1.43;;
22388;SDS011;11362;48.102;11.620;2023-12-20T13:56:45;7.83;;;1.53;;
22388;SDS011;11362;48.102;11.620;2023-12-20T13:59:10;8.20;;;1.40;;
22388;SDS011;11362;48.102;11.620;2023-12-20T14:01:35;5.27;;;1.77;;
22388;SDS011;11362;48.102;11.620;2023-12-20T14:04:01;5.37;;;1.90;;
22388;SDS011;11362;48.102;11.620;2023-12-20T14:06:26;4.77;;;1.30;;
22388;SDS011;11362;48.102;11.620;2023-12-20T14:08:51;7.77;;;1.87;;
22388;SDS011;11362;48.102;11.620;2023-12-20T14:11:16;7.87;;;1.70;;
22388;SDS011;11362;48.102;11.620;2023-12-20T14:13:42;11.87;;;2.00;;
22388;SDS011;11362;48.102;11.620;2023-12-20T14:16:07;11.47;;;1.90;;
22388;SDS011;11362;48.102;11.620;2023-12-20T14:18:32;4.10;;;2.00;;
22388;SDS011;11362;48.102;11.620;2023-12-20T14:20:58;6.87;;;1.80;;
22388;SDS011;11362;48.102;11.620;2023-12-20T14:23:23;9.57;;;2.20;;
22388;SDS011;11362;48.102;11.620;2023-12-20T14:25:48;5.97;;;1.53;;
22388;SDS011;11362;48.102;11.620;2023-12-20T14:28:13;9.77;;;1.63;;